Time;durP1;ratioP1;P1;durP2;ratioP2;P2;SDS_P1;SDS_P2;PMS_P1;PMS_P2;Temp;Humidity;BMP_temperature;BMP_pressure;BME280_temperature;BME280_humidity;BME280_pressure;Samples;Min_cycle;Max_cycle;Signal;HPM_P1;HPM_P2
2024/02/20 00:00:19;;;;;;;27.88;14.35;;;13.10;91.30;;;;;;5093696;28;20052;-76
2024/02/20 00:02:45;;;;;;;33.78;15.82;;;13.10;91.30;;;;;;5093699;28;20035;-76
2024/02/20 00:05:13;;;;;;;24.20;15.85;;;13.00;91.30;;;;;;5093658;28;20497;-74
2024/02/20 00:07:40;;;;;;;33.15;15.85;;;13.00;91.30;;;;;;5093570;28;20034;-74
2024/02/20 00:10:10;;;;;;;28.38;15.40;;;13.00;91.40;;;;;;5092838;28;20024;-74
2024/02/20 00:12:41;;;;;;;23.67;15.43;;;12.90;91.50;;;;;;5093188;28;20040;-74
2024/02/20 00:15:08;;;;;;;25.25;14.57;;;12.90;91.50;;;;;;5093145;28;20036;-73
2024/02/20 00:17:34;;;;;;;27.10;15.10;;;12.90;91.50;;;;;;5074805;28;20040;-73
2024/02/20 00:20:00;;;;;;;28.95;15.10;;;12.90;91.50;;;;;;5093037;28;20052;-74
2024/02/20 00:22:27;;;;;;;26.48;15.63;;;12.80;91.50;;;;;;5093285;28;20074;-74
2024/02/20 00:24:52;;;;;;;23.90;15.25;;;12.70;91.60;;;;;;5093121;28;20032;-73
2024/02/20 00:27:18;;;;;;;29.08;15.07;;;12.70;91.70;;;;;;5093025;28;20032;-74
2024/02/20 00:29:44;;;;;;;24.17;15.05;;;12.70;91.70;;;;;;5093313;28;20051;-74
2024/02/20 00:32:10;;;;;;;24.88;15.30;;;12.70;91.70;;;;;;5093111;28;20036;-74
2024/02/20 00:34:35;;;;;;;27.20;15.52;;;12.70;91.60;;;;;;5075058;28;20130;-72
2024/02/20 00:37:01;;;;;;;29.13;16.13;;;12.70;91.80;;;;;;5092973;28;20032;-75
2024/02/20 00:39:27;;;;;;;26.50;15.82;;;12.80;91.70;;;;;;5092890;28;20035;-73
2024/02/20 00:41:53;;;;;;;26.13;15.60;;;12.80;91.70;;;;;;5092551;28;20538;-73
2024/02/20 00:44:19;;;;;;;27.10;15.23;;;12.80;91.80;;;;;;5092706;28;20031;-74
2024/02/20 00:46:45;;;;;;;25.35;15.82;;;12.70;91.70;;;;;;5092743;28;20024;-73
2024/02/20 00:49:11;;;;;;;27.08;16.58;;;12.70;91.80;;;;;;5092682;28;20093;-74
2024/02/20 00:51:37;;;;;;;24.33;15.82;;;12.70;91.80;;;;;;5092299;28;20123;-73
2024/02/20 00:54:04;;;;;;;26.98;16.48;;;12.70;91.80;;;;;;5092603;28;20159;-73
2024/02/20 00:56:30;;;;;;;24.10;15.57;;;12.70;91.90;;;;;;5092584;28;20028;-72
2024/02/20 00:58:55;;;;;;;22.88;15.38;;;12.70;91.80;;;;;;5092776;28;20105;-74
2024/02/20 01:01:21;;;;;;;28.83;16.55;;;12.70;91.80;;;;;;5092408;28;20066;-74
2024/02/20 01:03:48;;;;;;;24.88;16.65;;;12.70;91.80;;;;;;5092350;28;20024;-74
2024/02/20 01:06:13;;;;;;;26.83;17.42;;;12.70;91.70;;;;;;5092430;28;20024;-75
2024/02/20 01:08:40;;;;;;;27.92;16.77;;;12.70;91.60;;;;;;5092434;28;20039;-73
2024/02/20 01:11:06;;;;;;;22.95;16.30;;;12.60;91.80;;;;;;5092393;28;20059;-72
2024/02/20 01:13:32;;;;;;;24.42;15.70;;;12.60;91.50;;;;;;5092479;28;20503;-74
2024/02/20 01:15:58;;;;;;;21.88;15.38;;;12.60;91.50;;;;;;5092488;28;20107;-74
2024/02/20 01:18:25;;;;;;;21.33;15.52;;;12.50;91.30;;;;;;5092410;28;20052;-73
2024/02/20 01:20:51;;;;;;;23.70;16.75;;;12.50;91.40;;;;;;5092126;28;20040;-73
2024/02/20 01:23:17;;;;;;;25.58;16.15;;;12.50;91.20;;;;;;5092097;28;20066;-73
2024/02/20 01:25:44;;;;;;;22.65;15.98;;;12.40;91.10;;;;;;5092077;28;20040;-73
2024/02/20 01:28:10;;;;;;;20.90;16.10;;;12.40;91.10;;;;;;5091872;28;20036;-72
2024/02/20 01:30:36;;;;;;;20.50;15.98;;;12.40;91.10;;;;;;5092040;28;20555;-73
2024/02/20 01:33:02;;;;;;;28.67;16.33;;;12.30;91.10;;;;;;5092054;28;20035;-73
2024/02/20 01:35:28;;;;;;;24.67;16.40;;;12.30;91.10;;;;;;5092028;28;20481;-74
2024/02/20 01:37:56;;;;;;;26.25;16.17;;;12.40;91.00;;;;;;5091910;28;20059;-73
2024/02/20 01:40:22;;;;;;;22.70;16.55;;;12.30;90.90;;;;;;5091810;28;20192;-73
2024/02/20 01:43:01;;;;;;;25.13;16.38;;;12.40;91.00;;;;;;5092146;28;20459;-73
2024/02/20 01:45:28;;;;;;;25.92;17.23;;;12.30;90.80;;;;;;5092290;28;20125;-73
2024/02/20 01:47:56;;;;;;;27.48;17.90;;;12.30;90.80;;;;;;5091852;28;20030;-73
2024/02/20 01:50:23;;;;;;;25.52;18.60;;;12.30;90.80;;;;;;5091725;28;20036;-73
2024/02/20 01:52:49;;;;;;;25.40;18.05;;;12.20;90.70;;;;;;5091512;28;20071;-73
2024/02/20 01:55:16;;;;;;;25.38;18.15;;;12.20;90.70;;;;;;5091827;28;20029;-73
2024/02/20 01:57:43;;;;;;;26.50;17.92;;;12.20;91.00;;;;;;5091677;28;20078;-73
2024/02/20 02:00:08;;;;;;;28.73;17.83;;;12.20;90.60;;;;;;5091715;28;20093;-73
2024/02/20 02:02:34;;;;;;;29.17;18.83;;;12.20;90.60;;;;;;5091556;28;20564;-72
2024/02/20 02:05:00;;;;;;;26.80;18.80;;;12.20;90.50;;;;;;5091642;28;20039;-73
2024/02/20 02:07:26;;;;;;;29.45;18.63;;;12.20;90.60;;;;;;5091659;28;20036;-74
2024/02/20 02:09:52;;;;;;;25.50;19.63;;;12.10;90.50;;;;;;5091911;28;20483;-73
2024/02/20 02:12:18;;;;;;;29.33;19.52;;;12.10;90.50;;;;;;5091700;28;20091;-73
2024/02/20 02:14:45;;;;;;;29.45;19.45;;;12.10;90.50;;;;;;5073733;28;20384;-74
2024/02/20 02:17:14;;;;;;;26.35;19.75;;;12.10;90.40;;;;;;5091769;28;20468;-74
2024/02/20 02:19:41;;;;;;;25.83;18.60;;;12.10;90.30;;;;;;5091453;28;20039;-73
2024/02/20 02:22:07;;;;;;;29.20;20.80;;;12.10;90.30;;;;;;5091254;28;20044;-72
2024/02/20 02:24:37;;;;;;;26.92;20.67;;;12.10;90.20;;;;;;5091713;28;20074;-73
2024/02/20 02:27:06;;;;;;;32.10;22.15;;;12.00;90.40;;;;;;5091544;28;20504;-73
2024/02/20 02:29:32;;;;;;;30.45;21.27;;;11.90;90.30;;;;;;5091498;28;20040;-73
2024/02/20 02:31:58;;;;;;;28.95;22.05;;;11.90;90.30;;;;;;5091608;28;20111;-74
2024/02/20 02:34:27;;;;;;;30.38;21.20;;;11.90;90.20;;;;;;5094424;28;20032;-73
2024/02/20 02:36:53;;;;;;;27.23;20.90;;;11.90;90.20;;;;;;5095130;28;20028;-73
2024/02/20 02:39:20;;;;;;;30.98;21.90;;;11.90;90.10;;;;;;5095208;28;20107;-73
2024/02/20 02:41:48;;;;;;;28.48;21.55;;;11.90;90.20;;;;;;5095134;28;20055;-73
2024/02/20 02:44:14;;;;;;;31.65;22.25;;;12.00;90.10;;;;;;5095310;28;20032;-73
2024/02/20 02:46:40;;;;;;;33.28;22.70;;;11.90;90.10;;;;;;5095315;28;20560;-73
2024/02/20 02:49:07;;;;;;;30.73;22.77;;;11.90;89.90;;;;;;5077148;28;20028;-73
2024/02/20 02:51:33;;;;;;;29.73;22.23;;;11.90;90.10;;;;;;5094662;28;20035;-63
2024/02/20 02:53:59;;;;;;;32.42;22.98;;;11.90;90.00;;;;;;5095048;28;20533;-74
2024/02/20 02:56:25;;;;;;;31.00;22.10;;;11.80;90.00;;;;;;5095028;28;20071;-74
2024/02/20 02:58:51;;;;;;;33.10;22.98;;;11.90;89.70;;;;;;5094733;28;20072;-74
2024/02/20 03:01:17;;;;;;;33.42;22.50;;;11.80;89.70;;;;;;5094906;28;20177;-73
2024/02/20 03:03:42;;;;;;;31.77;21.98;;;11.90;89.70;;;;;;5094603;28;20482;-73
2024/02/20 03:06:08;;;;;;;28.60;22.17;;;11.80;89.70;;;;;;5094664;28;20032;-73
2024/02/20 03:08:36;;;;;;;29.77;21.02;;;11.80;89.70;;;;;;5094623;28;20036;-74
2024/02/20 03:11:05;;;;;;;29.77;22.13;;;11.80;90.00;;;;;;5094489;28;20036;-75
2024/02/20 03:13:35;;;;;;;31.60;22.10;;;11.70;90.00;;;;;;5076500;28;20078;-73
2024/02/20 03:16:02;;;;;;;31.27;21.38;;;11.60;90.10;;;;;;5094478;28;20081;-72
2024/02/20 03:18:32;;;;;;;30.27;22.30;;;11.60;90.30;;;;;;5094358;28;20040;-73
2024/02/20 03:21:00;;;;;;;32.63;22.00;;;11.60;90.30;;;;;;5076499;28;20035;-73
2024/02/20 03:23:30;;;;;;;34.92;23.17;;;11.60;90.40;;;;;;5094505;28;20051;-73
2024/02/20 03:25:56;;;;;;;36.20;24.13;;;11.60;90.30;;;;;;5094280;28;20043;-73
2024/02/20 03:28:22;;;;;;;35.50;22.83;;;11.50;90.40;;;;;;5094184;28;20085;-73
2024/02/20 03:30:54;;;;;;;32.45;21.75;;;11.50;90.50;;;;;;5093897;28;20435;-73
2024/02/20 03:33:21;;;;;;;31.33;23.58;;;11.40;90.80;;;;;;5094245;28;20115;-73
2024/02/20 03:35:47;;;;;;;32.13;23.40;;;11.40;90.50;;;;;;5094191;28;20035;-74
2024/02/20 03:38:13;;;;;;;30.85;23.60;;;11.40;90.50;;;;;;5075874;28;20404;-73
2024/02/20 03:40:39;;;;;;;33.97;24.02;;;11.40;90.40;;;;;;5093895;28;20032;-73
2024/02/20 03:43:05;;;;;;;32.42;23.90;;;11.40;90.30;;;;;;5093745;28;20029;-73
2024/02/20 03:45:31;;;;;;;31.20;24.45;;;11.40;90.20;;;;;;5092583;28;20509;-73
2024/02/20 03:47:57;;;;;;;34.35;24.42;;;11.40;90.20;;;;;;5093812;28;20110;-72
2024/02/20 03:50:23;;;;;;;33.10;23.80;;;11.40;90.20;;;;;;5093572;28;20032;-74
2024/02/20 03:52:49;;;;;;;31.83;23.50;;;11.40;90.10;;;;;;5093374;28;20040;-66
2024/02/20 03:55:15;;;;;;;32.83;24.52;;;11.30;90.00;;;;;;5093440;28;20032;-74
2024/02/20 03:57:41;;;;;;;34.10;24.48;;;11.30;90.00;;;;;;5093353;28;20508;-74
2024/02/20 04:00:14;;;;;;;31.00;23.30;;;11.30;89.80;;;;;;5093242;28;20044;-73
2024/02/20 04:02:42;;;;;;;32.97;25.13;;;11.20;89.60;;;;;;5093609;28;20040;-73
2024/02/20 04:05:11;;;;;;;34.40;25.08;;;11.20;89.60;;;;;;5093139;28;20085;-73
2024/02/20 04:07:41;;;;;;;31.20;23.90;;;11.10;89.70;;;;;;5093297;28;20039;-74
2024/02/20 04:10:08;;;;;;;33.80;24.33;;;11.10;89.20;;;;;;5093677;28;20028;-73
2024/02/20 04:12:34;;;;;;;32.78;24.15;;;11.10;89.20;;;;;;5093220;28;20048;-73
2024/02/20 04:15:06;;;;;;;33.95;23.23;;;11.00;89.00;;;;;;5093308;28;20035;-74
2024/02/20 04:17:32;;;;;;;31.58;24.40;;;11.00;88.60;;;;;;5093133;28;20032;-73
2024/02/20 04:20:00;;;;;;;31.42;24.00;;;11.00;88.80;;;;;;5093096;28;20371;-74
2024/02/20 04:22:26;;;;;;;31.50;23.08;;;10.90;88.80;;;;;;5093329;28;20477;-74
2024/02/20 04:24:52;;;;;;;30.50;23.08;;;10.90;88.70;;;;;;5093108;28;20043;-74
2024/02/20 04:27:17;;;;;;;31.83;23.40;;;11.00;88.70;;;;;;5075379;28;20477;-74
2024/02/20 04:29:43;;;;;;;30.70;23.02;;;11.00;88.30;;;;;;5093124;28;20077;-74
2024/02/20 04:32:09;;;;;;;31.13;24.10;;;10.90;88.20;;;;;;5092581;28;20131;-73
2024/02/20 04:34:34;;;;;;;31.00;23.23;;;11.00;88.10;;;;;;5093096;28;20112;-74
2024/02/20 04:37:00;;;;;;;30.23;23.92;;;11.00;88.20;;;;;;5092968;28;20042;-74
2024/02/20 04:39:26;;;;;;;34.13;24.25;;;11.00;88.10;;;;;;5092867;28;20544;-74
2024/02/20 04:41:51;;;;;;;35.20;24.38;;;11.00;88.10;;;;;;5092870;28;20044;-72
2024/02/20 04:44:17;;;;;;;31.65;25.10;;;11.00;87.70;;;;;;5092714;28;20024;-73
2024/02/20 04:46:43;;;;;;;33.80;25.45;;;11.00;88.00;;;;;;5092948;28;20036;-73
2024/02/20 04:49:08;;;;;;;31.35;23.70;;;10.90;87.60;;;;;;5092833;28;20071;-73
2024/02/20 04:51:35;;;;;;;39.42;25.83;;;11.00;87.80;;;;;;5092615;28;20196;-74
2024/02/20 04:54:01;;;;;;;36.75;24.17;;;11.00;87.50;;;;;;5092864;28;20063;-73
2024/02/20 04:56:27;;;;;;;31.30;24.58;;;11.00;87.40;;;;;;5092218;28;20063;-73
2024/02/20 04:58:52;;;;;;;33.30;24.17;;;11.10;87.30;;;;;;5092355;28;20118;-74
2024/02/20 05:01:18;;;;;;;34.55;25.83;;;11.10;87.30;;;;;;5092447;28;20051;-73
2024/02/20 05:03:46;;;;;;;34.30;25.33;;;11.10;87.00;;;;;;5092356;28;20032;-74
2024/02/20 05:06:12;;;;;;;30.65;25.15;;;11.10;87.00;;;;;;5092357;28;20036;-73
2024/02/20 05:08:38;;;;;;;32.67;24.95;;;11.10;87.00;;;;;;5092314;28;20028;-74
2024/02/20 05:11:04;;;;;;;32.75;25.42;;;11.10;86.70;;;;;;5092148;28;20040;-74
2024/02/20 05:13:29;;;;;;;32.20;24.00;;;11.10;86.80;;;;;;5092130;28;20040;-73
2024/02/20 05:15:55;;;;;;;34.45;25.98;;;11.10;86.60;;;;;;5092880;28;20430;-73
2024/02/20 05:18:21;;;;;;;32.85;23.88;;;11.10;86.70;;;;;;5092538;28;20039;-74
2024/02/20 05:20:46;;;;;;;32.25;24.85;;;11.00;86.70;;;;;;5092560;28;20028;-74
2024/02/20 05:23:12;;;;;;;29.63;23.45;;;11.00;86.50;;;;;;5092117;28;20108;-73
2024/02/20 05:25:38;;;;;;;32.00;24.17;;;11.00;86.50;;;;;;5092484;28;20021;-73
2024/02/20 05:28:03;;;;;;;31.75;24.05;;;11.00;86.60;;;;;;5074461;28;20090;-74
2024/02/20 05:30:30;;;;;;;31.08;24.15;;;10.90;86.10;;;;;;5092436;28;20036;-72
2024/02/20 05:32:55;;;;;;;30.42;23.95;;;10.80;86.40;;;;;;5057619;28;20044;-75
2024/02/20 05:35:21;;;;;;;32.70;23.92;;;10.80;86.50;;;;;;5092368;28;20036;-74
2024/02/20 05:37:47;;;;;;;31.40;25.63;;;10.80;86.50;;;;;;5092269;28;20512;-74
2024/02/20 05:40:13;;;;;;;27.75;22.90;;;10.80;86.40;;;;;;5092299;28;20043;-75
2024/02/20 05:42:40;;;;;;;30.58;24.48;;;10.80;86.20;;;;;;5092352;28;20034;-75
2024/02/20 05:45:06;;;;;;;30.58;23.55;;;10.80;86.50;;;;;;5074054;28;20020;-74
2024/02/20 05:47:32;;;;;;;29.58;23.30;;;10.80;86.20;;;;;;5092169;28;20113;-73
2024/02/20 05:49:58;;;;;;;31.80;23.83;;;10.80;86.20;;;;;;5092084;28;20024;-74
2024/02/20 05:52:24;;;;;;;34.05;24.90;;;10.70;85.90;;;;;;5092078;28;20048;-74
2024/02/20 05:54:50;;;;;;;34.28;25.08;;;10.70;86.00;;;;;;5092317;28;20027;-75
2024/02/20 05:57:15;;;;;;;32.65;24.83;;;10.80;86.10;;;;;;5092287;28;20482;-74
2024/02/20 05:59:41;;;;;;;29.25;23.90;;;10.70;85.80;;;;;;5091889;28;20067;-74
2024/02/20 06:02:07;;;;;;;31.67;24.00;;;10.70;85.70;;;;;;5092206;28;20036;-74
2024/02/20 06:04:33;;;;;;;34.03;25.83;;;10.60;85.80;;;;;;5091907;28;20366;-76
2024/02/20 06:06:58;;;;;;;34.38;25.02;;;10.50;85.90;;;;;;5092186;28;20043;-74
2024/02/20 06:09:24;;;;;;;35.00;27.02;;;10.50;86.20;;;;;;5094888;28;20028;-73
2024/02/20 06:11:50;;;;;;;34.80;26.20;;;10.50;86.30;;;;;;5095683;28;20036;-74
2024/02/20 06:14:16;;;;;;;34.95;25.73;;;10.50;86.30;;;;;;5095709;28;20440;-75
2024/02/20 06:16:42;;;;;;;33.92;24.80;;;10.50;86.40;;;;;;5095520;28;20531;-74
2024/02/20 06:19:08;;;;;;;33.28;24.95;;;10.50;86.30;;;;;;5095523;28;20028;-74
2024/02/20 06:21:34;;;;;;;30.73;24.27;;;10.60;86.40;;;;;;5095428;28;20047;-74
2024/02/20 06:23:59;;;;;;;32.95;24.60;;;10.60;86.10;;;;;;5095601;28;20056;-74
2024/02/20 06:26:25;;;;;;;32.45;24.85;;;10.70;86.30;;;;;;5095663;28;20111;-76
2024/02/20 06:28:51;;;;;;;33.42;25.00;;;10.80;86.30;;;;;;5095391;28;20032;-73
2024/02/20 06:31:17;;;;;;;30.27;22.50;;;10.80;86.10;;;;;;5095380;28;20040;-73
2024/02/20 06:33:44;;;;;;;35.08;24.35;;;10.90;86.00;;;;;;5095456;28;20056;-73
2024/02/20 06:36:10;;;;;;;34.88;24.58;;;10.90;86.10;;;;;;5095129;28;20089;-75
2024/02/20 06:38:39;;;;;;;29.17;23.65;;;10.90;86.10;;;;;;5094855;28;20024;-74
2024/02/20 06:41:05;;;;;;;34.35;24.30;;;11.00;85.80;;;;;;5095115;28;20032;-74
2024/02/20 06:43:31;;;;;;;30.95;24.63;;;11.00;85.40;;;;;;5095157;28;20553;-74
2024/02/20 06:45:56;;;;;;;34.30;25.05;;;11.00;85.50;;;;;;5094973;28;20059;-74
2024/02/20 06:48:22;;;;;;;32.47;25.67;;;11.00;85.50;;;;;;5095033;28;20461;-74
2024/02/20 06:50:49;;;;;;;35.08;25.10;;;11.00;85.30;;;;;;5094592;28;20422;-73
2024/02/20 06:53:15;;;;;;;32.35;24.65;;;11.00;85.40;;;;;;5095206;28;20370;-74
2024/02/20 06:55:40;;;;;;;36.40;25.20;;;11.00;85.30;;;;;;5094924;28;20024;-74
2024/02/20 06:58:06;;;;;;;29.85;23.58;;;11.00;85.20;;;;;;5094942;28;20111;-74
2024/02/20 07:00:32;;;;;;;30.75;24.90;;;11.20;85.00;;;;;;5094634;28;20042;-74
2024/02/20 07:02:57;;;;;;;34.80;23.52;;;11.40;85.00;;;;;;5095278;28;20043;-74
2024/02/20 07:05:23;;;;;;;31.48;23.85;;;11.40;84.60;;;;;;5094645;28;20039;-73
2024/02/20 07:07:49;;;;;;;31.92;23.98;;;11.50;84.50;;;;;;5094955;28;20056;-73
2024/02/20 07:10:14;;;;;;;31.02;24.95;;;11.50;84.00;;;;;;5094714;28;20086;-74
2024/02/20 07:12:40;;;;;;;30.95;24.75;;;11.50;83.80;;;;;;5094602;28;20416;-76
2024/02/20 07:15:06;;;;;;;36.25;25.65;;;11.50;83.80;;;;;;5076913;28;20028;-76
2024/02/20 07:17:36;;;;;;;33.47;24.17;;;11.50;83.70;;;;;;5094836;28;20101;-74
2024/02/20 07:20:03;;;;;;;31.58;24.02;;;11.70;83.50;;;;;;5093999;28;20024;-73
2024/02/20 07:22:32;;;;;;;30.58;23.83;;;11.70;83.50;;;;;;5094079;28;20032;-74
2024/02/20 07:25:01;;;;;;;31.40;24.13;;;11.80;83.20;;;;;;5093616;28;20078;-75
2024/02/20 07:27:27;;;;;;;32.38;23.38;;;11.90;83.40;;;;;;5093852;28;20036;-74
2024/02/20 07:29:52;;;;;;;34.15;24.55;;;12.10;82.30;;;;;;5094071;28;20093;-75
2024/02/20 07:32:18;;;;;;;30.90;23.80;;;12.10;82.20;;;;;;5093423;28;20056;-74
2024/02/20 07:34:46;;;;;;;33.30;24.55;;;12.00;81.80;;;;;;5093947;28;20520;-75
2024/02/20 07:37:12;;;;;;;33.58;24.38;;;12.00;82.00;;;;;;5094047;28;20089;-75
2024/02/20 07:39:39;;;;;;;32.05;24.45;;;12.10;82.10;;;;;;5093777;28;20409;-74
2024/02/20 07:42:07;;;;;;;35.95;23.88;;;12.20;81.60;;;;;;5093371;28;20393;-75
2024/02/20 07:44:33;;;;;;;29.42;23.27;;;12.30;81.10;;;;;;5093513;28;20032;-74
2024/02/20 07:46:59;;;;;;;31.40;23.05;;;12.40;80.90;;;;;;5093411;28;20039;-74
2024/02/20 07:49:25;;;;;;;31.55;23.27;;;12.40;80.60;;;;;;5093287;28;20032;-66
2024/02/20 07:51:50;;;;;;;37.40;23.75;;;12.40;80.40;;;;;;5093105;28;20044;-74
2024/02/20 07:54:16;;;;;;;31.23;23.63;;;12.40;80.70;;;;;;5093299;28;20038;-74
2024/02/20 07:56:42;;;;;;;30.52;23.00;;;12.30;80.70;;;;;;5093275;28;20031;-73
2024/02/20 07:59:08;;;;;;;32.10;22.85;;;12.20;81.10;;;;;;5092891;28;20581;-74
2024/02/20 08:01:34;;;;;;;33.42;23.27;;;12.20;81.40;;;;;;5092969;28;20098;-76
2024/02/20 08:04:00;;;;;;;33.10;23.35;;;12.20;81.40;;;;;;5093114;28;20466;-74
2024/02/20 08:06:26;;;;;;;30.95;22.77;;;12.30;81.50;;;;;;5093083;28;20040;-74
2024/02/20 08:08:51;;;;;;;28.30;22.90;;;12.30;81.50;;;;;;5093152;28;20107;-75
2024/02/20 08:11:17;;;;;;;28.98;21.67;;;12.20;81.40;;;;;;5092954;28;20040;-75
2024/02/20 08:13:45;;;;;;;26.90;21.38;;;12.10;81.50;;;;;;5092637;28;20032;-74
2024/02/20 08:16:12;;;;;;;31.92;22.67;;;12.20;81.90;;;;;;5092755;28;20182;-75
2024/02/20 08:18:40;;;;;;;26.48;21.30;;;12.30;81.70;;;;;;5092799;28;20039;-74
2024/02/20 08:21:06;;;;;;;30.13;21.52;;;12.30;81.50;;;;;;5092938;28;20032;-75
2024/02/20 08:23:34;;;;;;;30.20;21.58;;;12.30;81.60;;;;;;5092837;28;20043;-75
2024/02/20 08:26:02;;;;;;;25.73;20.65;;;12.30;81.70;;;;;;5092723;28;20031;-76
2024/02/20 08:28:28;;;;;;;32.70;21.60;;;12.30;81.60;;;;;;5093216;28;20427;-75
2024/02/20 08:30:53;;;;;;;31.42;21.75;;;12.30;81.60;;;;;;5091602;28;20036;-75
2024/02/20 08:33:19;;;;;;;28.20;20.67;;;12.30;81.80;;;;;;5092279;28;20040;-76
2024/02/20 08:35:45;;;;;;;27.30;19.67;;;12.30;82.00;;;;;;5092567;28;20481;-75
2024/02/20 08:38:11;;;;;;;24.15;18.85;;;12.30;82.00;;;;;;5092672;28;20108;-74
2024/02/20 08:40:37;;;;;;;24.55;18.52;;;12.20;81.90;;;;;;5092486;28;20058;-75
2024/02/20 08:43:02;;;;;;;30.10;18.88;;;12.30;82.60;;;;;;5092294;28;20044;-75
2024/02/20 08:45:28;;;;;;;25.35;18.70;;;12.30;82.60;;;;;;5092314;28;20040;-75
2024/02/20 08:47:54;;;;;;;24.50;18.45;;;12.30;82.60;;;;;;5092276;28;20032;-76
2024/02/20 08:50:21;;;;;;;27.25;18.42;;;12.30;82.70;;;;;;5092364;28;20391;-75
2024/02/20 08:52:47;;;;;;;22.73;17.88;;;12.30;82.90;;;;;;5091955;28;20465;-75
2024/02/20 08:55:15;;;;;;;21.30;17.55;;;12.30;83.10;;;;;;5092183;28;20035;-75
2024/02/20 08:57:41;;;;;;;25.20;16.73;;;12.40;83.40;;;;;;5092264;28;20040;-73
2024/02/20 09:00:13;;;;;;;21.75;16.50;;;12.40;83.40;;;;;;5091950;28;20090;-75
2024/02/20 09:02:42;;;;;;;24.35;16.60;;;12.40;83.80;;;;;;5092304;28;20036;-75
2024/02/20 09:05:11;;;;;;;26.73;16.95;;;12.50;84.30;;;;;;5092083;28;20033;-74
2024/02/20 09:07:38;;;;;;;24.92;16.67;;;12.50;84.90;;;;;;5091879;28;20040;-74
2024/02/20 09:10:04;;;;;;;23.33;17.27;;;12.50;85.00;;;;;;5091741;28;20481;-74
2024/02/20 09:12:30;;;;;;;22.25;17.55;;;12.50;85.40;;;;;;5091785;28;20048;-73
2024/02/20 09:14:56;;;;;;;24.40;17.60;;;12.50;85.50;;;;;;5091824;28;20055;-74
2024/02/20 09:17:22;;;;;;;23.95;17.20;;;12.50;85.70;;;;;;5092071;28;20039;-75
2024/02/20 09:19:49;;;;;;;22.33;17.65;;;12.60;86.10;;;;;;5092253;28;20115;-75
2024/02/20 09:22:15;;;;;;;23.77;15.77;;;12.70;85.90;;;;;;5091712;28;20020;-74
2024/02/20 09:24:41;;;;;;;19.77;15.27;;;12.70;86.20;;;;;;5091930;28;20043;-75
2024/02/20 09:27:07;;;;;;;20.85;14.77;;;12.80;86.90;;;;;;5091676;28;20078;-74
2024/02/20 09:29:32;;;;;;;15.95;13.13;;;12.90;86.50;;;;;;5091882;28;20040;-74
2024/02/20 09:31:58;;;;;;;20.35;14.20;;;13.00;86.40;;;;;;5073591;28;20036;-74
2024/02/20 09:34:25;;;;;;;18.20;14.52;;;13.10;86.40;;;;;;5074518;28;20024;-75
2024/02/20 09:36:51;;;;;;;20.50;14.10;;;13.20;86.50;;;;;;5092709;28;20032;-75
2024/02/20 09:39:16;;;;;;;16.95;13.48;;;13.30;86.70;;;;;;5092392;28;20028;-73
2024/02/20 09:41:43;;;;;;;18.95;14.00;;;13.30;87.10;;;;;;5075241;28;20088;-75
2024/02/20 09:44:12;;;;;;;20.55;13.15;;;13.30;87.10;;;;;;5096218;28;20379;-75
2024/02/20 09:46:42;;;;;;;19.23;12.88;;;13.40;87.30;;;;;;5096042;28;20032;-74
2024/02/20 09:49:09;;;;;;;20.23;12.77;;;13.40;87.40;;;;;;5096155;28;20028;-75
2024/02/20 09:51:36;;;;;;;16.13;12.25;;;13.40;87.20;;;;;;5095972;28;20043;-75
2024/02/20 09:54:03;;;;;;;16.25;11.93;;;13.50;87.30;;;;;;5095651;28;20028;-75
2024/02/20 09:56:33;;;;;;;19.80;12.25;;;13.60;87.30;;;;;;5095919;28;20039;-75
2024/02/20 09:58:59;;;;;;;14.95;11.57;;;13.70;87.20;;;;;;5095732;28;20418;-75
2024/02/20 10:01:26;;;;;;;18.25;12.38;;;13.80;87.20;;;;;;5095779;28;20214;-75
2024/02/20 10:03:57;;;;;;;17.63;12.88;;;13.90;87.20;;;;;;5095766;28;20101;-74
2024/02/20 10:06:24;;;;;;;20.83;13.75;;;13.90;87.10;;;;;;5095360;28;20024;-74
2024/02/20 10:08:54;;;;;;;18.25;12.95;;;13.90;87.10;;;;;;5077065;28;20036;-75
2024/02/20 10:11:20;;;;;;;18.63;14.13;;;14.00;87.20;;;;;;5095306;28;20086;-74
2024/02/20 10:13:51;;;;;;;19.25;13.98;;;14.00;87.20;;;;;;5095437;28;20082;-73
2024/02/20 10:16:17;;;;;;;17.75;14.25;;;14.00;87.20;;;;;;5095612;28;20068;-75
2024/02/20 10:18:43;;;;;;;26.92;16.00;;;14.00;87.10;;;;;;5095439;28;20028;-74
2024/02/20 10:21:09;;;;;;;23.17;15.95;;;14.00;87.10;;;;;;5095295;28;20036;-74
2024/02/20 10:23:35;;;;;;;18.17;14.75;;;14.00;87.20;;;;;;5095125;28;20051;-76
2024/02/20 10:26:01;;;;;;;23.65;16.85;;;13.90;87.10;;;;;;5095193;28;20028;-74
2024/02/20 10:28:28;;;;;;;18.45;15.32;;;13.90;87.20;;;;;;5095120;28;20035;-74
2024/02/20 10:30:55;;;;;;;22.55;16.00;;;13.90;87.10;;;;;;5095044;28;20032;-74
2024/02/20 10:33:22;;;;;;;23.75;15.50;;;13.80;87.00;;;;;;5094946;28;20040;-74
2024/02/20 10:35:47;;;;;;;20.58;15.25;;;13.90;87.00;;;;;;5094658;28;20034;-75
2024/02/20 10:38:18;;;;;;;21.02;16.33;;;14.00;86.90;;;;;;5094914;28;20036;-75
2024/02/20 10:40:44;;;;;;;21.85;16.25;;;14.10;86.50;;;;;;5094829;28;20035;-76
2024/02/20 10:43:11;;;;;;;19.38;16.13;;;14.20;85.90;;;;;;5094900;28;20033;-74
2024/02/20 10:45:39;;;;;;;21.52;16.35;;;14.30;85.60;;;;;;5095007;28;20040;-75
2024/02/20 10:48:10;;;;;;;25.80;17.65;;;14.30;85.30;;;;;;5094787;28;20378;-75
2024/02/20 10:50:36;;;;;;;24.02;17.10;;;14.30;85.10;;;;;;5094890;28;20039;-76
2024/02/20 10:53:02;;;;;;;23.83;16.42;;;14.40;84.80;;;;;;5094470;28;20048;-74
2024/02/20 10:55:32;;;;;;;20.08;15.70;;;14.50;84.30;;;;;;5094009;28;20338;-75
2024/02/20 10:57:59;;;;;;;19.60;16.15;;;14.70;83.90;;;;;;5094740;28;20044;-75
2024/02/20 11:00:26;;;;;;;19.15;15.73;;;14.90;83.30;;;;;;5075987;28;20523;-74
2024/02/20 11:02:53;;;;;;;20.73;14.52;;;15.10;82.70;;;;;;5094532;28;20032;-75
2024/02/20 11:05:19;;;;;;;21.02;15.57;;;15.20;82.50;;;;;;5094485;28;20378;-74
2024/02/20 11:07:45;;;;;;;18.00;14.85;;;15.30;82.20;;;;;;5094286;28;20035;-76
2024/02/20 11:10:18;;;;;;;26.45;15.65;;;15.40;82.00;;;;;;5094285;28;20036;-76
2024/02/20 11:12:45;;;;;;;22.38;14.50;;;15.40;81.40;;;;;;5094494;28;20091;-74
2024/02/20 11:15:21;;;;;;;22.10;14.65;;;15.30;81.00;;;;;;5094166;28;20478;-76
2024/02/20 11:17:50;;;;;;;19.23;13.93;;;15.30;80.70;;;;;;5094269;28;20115;-75
2024/02/20 11:20:23;;;;;;;15.23;12.43;;;15.30;81.30;;;;;;5094073;28;20085;-74
2024/02/20 11:22:50;;;;;;;19.08;12.57;;;15.30;81.00;;;;;;5094329;28;20054;-75
2024/02/20 11:25:30;;;;;;;15.73;11.63;;;15.30;80.20;;;;;;5094392;28;20068;-74
2024/02/20 11:27:56;;;;;;;16.27;8.75;;;15.40;79.90;;;;;;5094123;28;20028;-75
2024/02/20 11:30:24;;;;;;;13.57;9.38;;;15.30;79.10;;;;;;5094026;28;20442;-74
2024/02/20 11:32:54;;;;;;;13.88;10.20;;;15.50;78.70;;;;;;5075735;28;20040;-76
2024/02/20 11:35:38;;;;;;;15.05;11.15;;;15.70;77.90;;;;;;5094003;28;20139;-74
2024/02/20 11:38:06;;;;;;;15.50;10.35;;;15.90;77.80;;;;;;5093913;28;20047;-74
2024/02/20 11:40:33;;;;;;;14.40;10.10;;;16.10;77.00;;;;;;5094173;28;20576;-74
2024/02/20 11:43:01;;;;;;;17.85;11.35;;;16.20;76.40;;;;;;5093794;28;20111;-75
2024/02/20 11:45:29;;;;;;;16.30;10.25;;;16.40;76.40;;;;;;5094050;28;20477;-74
2024/02/20 11:48:00;;;;;;;16.38;10.88;;;16.50;75.40;;;;;;5093610;28;20115;-74
2024/02/20 11:50:30;;;;;;;15.32;10.88;;;16.70;75.00;;;;;;5093819;28;20481;-75
2024/02/20 11:53:03;;;;;;;22.42;11.32;;;16.80;74.70;;;;;;5093410;28;20091;-75
2024/02/20 11:55:32;;;;;;;15.70;10.20;;;16.90;74.50;;;;;;5093775;28;20112;-76
2024/02/20 11:58:00;;;;;;;17.65;12.05;;;17.00;74.20;;;;;;5093805;28;20173;-76
2024/02/20 12:00:35;;;;;;;16.83;11.57;;;17.20;73.80;;;;;;5093627;28;20040;-75
2024/02/20 12:03:04;;;;;;;17.13;11.57;;;17.30;73.40;;;;;;5093334;28;20147;-75
2024/02/20 12:05:40;;;;;;;23.77;12.60;;;17.40;72.90;;;;;;5092508;28;20051;-75
2024/02/20 12:08:17;;;;;;;19.30;13.52;;;17.50;72.70;;;;;;5093572;28;20036;-75
2024/02/20 12:10:44;;;;;;;20.08;13.27;;;17.60;71.90;;;;;;5093558;28;20028;-75
2024/02/20 12:13:15;;;;;;;27.38;13.52;;;17.60;71.60;;;;;;5093290;28;20039;-76
2024/02/20 12:15:41;;;;;;;22.92;13.23;;;17.70;71.60;;;;;;5093206;28;20078;-75
2024/02/20 12:18:11;;;;;;;19.42;12.65;;;17.70;70.40;;;;;;5075035;28;20071;-75
2024/02/20 12:20:37;;;;;;;24.00;12.13;;;17.70;70.20;;;;;;5093167;28;20039;-76
2024/02/20 12:23:04;;;;;;;16.20;11.55;;;17.80;70.20;;;;;;5093255;28;20036;-75
2024/02/20 12:25:29;;;;;;;19.30;12.15;;;18.00;69.90;;;;;;5093229;28;20102;-75